Flight Track Log - Related Links

Times and Time Zones

All times are in EDT time to prevent confusion due to time zone crossing. See the SWA253 flight status page for this flight to view local times or setup timezone preferences in your user account.

Time Position Orientation Groundspeed Altitude Reporting Facility
EDT Latitude Longitude Course Direction KTS MPH feet Rate Location/Type
Sun 10:42:03 PM 37.7167 -122.2333 308° West 141 162 1,100  Level Northern Cal TRACON
Sun 10:43:06 PM 37.7483 -122.2839 308° West 181 208 3,800 3,290 Climbing Oakland Center
Sun 10:44:07 PM 37.7319 -122.3428 251° West 202 232 7,900 3,897 Climbing Oakland Center
Sun 10:45:03 PM 37.6667 -122.3833 206° Southwest 254 292 11,400 3,098 Climbing Northern Cal TRACON
Sun 10:46:09 PM 37.5928 -122.3853 181° South 305 351 14,200 2,787 Climbing Oakland Center
Sun 10:47:10 PM 37.5033 -122.3147 148° Southeast 377 434 17,300 3,098 Climbing Oakland Center
Sun 10:48:11 PM 37.4169 -122.2200 139° Southeast 408 470 20,500 2,803 Climbing Oakland Center
Sun 10:49:12 PM 37.3258 -122.1233 140° Southeast 425 489 23,000 2,803 Climbing Oakland Center
Sun 10:50:13 PM 37.2097 -122.0061 141° Southeast 444 511 26,200 1,967 Climbing Oakland Center
Sun 10:51:14 PM 37.1100 -121.9006 140° Southeast 464 534 27,000 393 Climbing Oakland Center
Sun 10:52:15 PM 37.0042 -121.7911 140° Southeast 490 564 27,000  Level Oakland Center
Sun 10:53:16 PM 36.8944 -121.6789 141° Southeast 509 586 27,000  Level Oakland Center
Sun 10:54:17 PM 36.7825 -121.5597 140° Southeast 509 586 27,000  Level Oakland Center
Sun 10:55:18 PM 36.6731 -121.4492 141° Southeast 507 583 27,000  Level Oakland Center
Sun 10:56:19 PM 36.5661 -121.3369 140° Southeast 504 580 27,000 -689 Level Oakland Center
Sun 10:57:20 PM 36.4597 -121.2275 140° Southeast 496 571 25,600 -984 Descending Oakland Center
Sun 10:58:21 PM 36.3578 -121.1236 141° Southeast 477 549 25,000 -295 Descending Oakland Center
Sun 10:59:22 PM 36.2583 -121.0233 141° Southeast 463 533 25,000  Level Oakland Center
Sun 11:00:23 PM 36.1578 -120.9217 141° Southeast 465 535 25,000  Level Oakland Center
Sun 11:01:24 PM 36.0586 -120.8231 141° Southeast 461 531 25,000  Level Oakland Center
Sun 11:02:25 PM 35.9608 -120.7228 140° Southeast 458 527 25,000  Level Oakland Center
Sun 11:03:26 PM 35.8633 -120.6256 141° Southeast 452 520 25,000  Level Oakland Center
Sun 11:04:27 PM 35.7642 -120.5275 141° Southeast 456 525 25,000  Level Oakland Center
Sun 11:05:28 PM 35.6456 -120.4089 141° Southeast 458 527 25,000 -492 Level Oakland Center
Sun 11:06:29 PM 35.5467 -120.3111 141° Southeast 454 522 24,000 -492 Descending Oakland Center
Sun 11:07:30 PM 35.4528 -120.2189 141° Southeast 447 514 24,000  Level Oakland Center
Sun 11:08:31 PM 35.3683 -120.1339 141° Southeast 451 519 24,000  Level Oakland Center
Sun 11:08:50 PM 35.3292 -120.0969 142° Southeast 447 514 24,000  Level Los Angeles Center
Sun 11:09:52 PM 35.2325 -120.0025 141° Southeast 443 510 24,000  Level Los Angeles Center
Sun 11:10:53 PM 35.1361 -119.9078 141° Southeast 443 510 24,000  Level Los Angeles Center
Sun 11:11:55 PM 35.0464 -119.8033 136° Southeast 447 514 24,000 -581 Level Los Angeles Center
Sun 11:12:57 PM 34.9469 -119.6678 132° Southeast 447 514 22,800 -1,548 Descending Los Angeles Center
Sun 11:13:59 PM 34.8678 -119.5597 132° Southeast 432 497 20,800 -1,941 Descending Los Angeles Center
Sun 11:15:13 PM 34.7758 -119.4367 132° Southeast 412 474 18,400 -2,000 Descending Los Angeles Center
Sun 11:16:14 PM 34.7022 -119.3367 132° Southeast 398 458 16,300 -1,951 Descending Los Angeles Center
Sun 11:17:16 PM 34.6303 -119.2417 133° Southeast 386 444 14,400 -1,887 Descending Los Angeles Center
Sun 11:18:18 PM 34.5547 -119.1436 133° Southeast 366 421 12,400 -1,597 Descending Los Angeles Center
Sun 11:19:20 PM 34.4878 -119.0558 133° Southeast 348 400 11,100 -677 Descending Los Angeles Center
Sun 11:20:22 PM 34.4269 -118.9736 132° Southeast 322 371 11,000 -829 Descending Los Angeles Center
Sun 11:21:23 PM 34.3819 -118.8811 120° Southeast 317 365 9,400 -1,366 Descending Los Angeles Center
Sun 11:22:25 PM 34.3381 -118.7881 120° Southeast 315 362 8,200 -1,403 Descending Los Angeles Center
Sun 11:23:27 PM 34.2911 -118.6878 120° Southeast 289 333 6,500 -1,452 Descending Los Angeles Center
Sun 11:24:29 PM 34.2517 -118.6019 119° Southeast 291 335 5,200 -1,244 Descending Los Angeles Center
Sun 11:24:49 PM 34.2333 -118.5667 122° Southeast 263 303 4,800 -1,275 Descending Southern California TRACON
Sun 11:25:49 PM 34.2000 -118.5000 121° Southeast 212 244 3,500 -1,100 Descending Southern California TRACON
Sun 11:26:49 PM 34.2000 -118.4500 90° East 158 182 2,600 -1,050 Descending Southern California TRACON
Sun 11:27:49 PM 34.2000 -118.4000 90° East 128 147 1,400 -1,200 Descending Southern California TRACON
Sun 11:30:00 PM 34.2000 -118.3500 140° Southeast  Level FlightAware Approximate
Sun 11:37:00 PM 34.2007 -118.3587 140° Southeast  Level Estimated

Login

Don't have an account? Register now (free) for customized features, flight alerts, and more!